sensor_id;sensor_type;location;lat;lon;timestamp;P1;durP1;ratioP1;P2;durP2;ratioP2
26050;SDS011;13825;53.496;10.020;2023-12-20T00:00:05;7.10;;;1.40;;
26050;SDS011;13825;53.496;10.020;2023-12-20T00:02:39;5.00;;;1.17;;
26050;SDS011;13825;53.496;10.020;2023-12-20T00:05:12;5.73;;;1.50;;
26050;SDS011;13825;53.496;10.020;2023-12-20T00:07:43;5.37;;;1.50;;
26050;SDS011;13825;53.496;10.020;2023-12-20T00:10:10;4.63;;;1.27;;
26050;SDS011;13825;53.496;10.020;2023-12-20T00:12:38;6.00;;;1.27;;
26050;SDS011;13825;53.496;10.020;2023-12-20T00:15:06;11.33;;;1.80;;
26050;SDS011;13825;53.496;10.020;2023-12-20T00:20:21;7.33;;;1.47;;
26050;SDS011;13825;53.496;10.020;2023-12-20T00:22:52;11.47;;;1.63;;
26050;SDS011;13825;53.496;10.020;2023-12-20T00:25:21;7.73;;;1.97;;
26050;SDS011;13825;53.496;10.020;2023-12-20T00:27:52;6.60;;;1.57;;
26050;SDS011;13825;53.496;10.020;2023-12-20T00:30:19;2.77;;;0.90;;
26050;SDS011;13825;53.496;10.020;2023-12-20T00:32:48;5.97;;;1.57;;
26050;SDS011;13825;53.496;10.020;2023-12-20T00:35:15;4.40;;;1.63;;
26050;SDS011;13825;53.496;10.020;2023-12-20T00:37:43;3.27;;;1.43;;
26050;SDS011;13825;53.496;10.020;2023-12-20T00:40:12;2.67;;;1.10;;
26050;SDS011;13825;53.496;10.020;2023-12-20T00:42:39;5.37;;;1.50;;
26050;SDS011;13825;53.496;10.020;2023-12-20T00:45:12;6.20;;;1.60;;
26050;SDS011;13825;53.496;10.020;2023-12-20T00:47:39;14.23;;;2.63;;
26050;SDS011;13825;53.496;10.020;2023-12-20T00:50:07;5.77;;;1.40;;
26050;SDS011;13825;53.496;10.020;2023-12-20T00:52:34;3.73;;;1.43;;
26050;SDS011;13825;53.496;10.020;2023-12-20T00:55:04;5.63;;;1.23;;
26050;SDS011;13825;53.496;10.020;2023-12-20T00:57:35;6.27;;;1.53;;
26050;SDS011;13825;53.496;10.020;2023-12-20T01:00:03;6.73;;;1.80;;
26050;SDS011;13825;53.496;10.020;2023-12-20T01:02:32;12.80;;;2.23;;
26050;SDS011;13825;53.496;10.020;2023-12-20T01:05:02;6.67;;;2.07;;
26050;SDS011;13825;53.496;10.020;2023-12-20T01:07:32;9.77;;;2.00;;
26050;SDS011;13825;53.496;10.020;2023-12-20T01:09:59;9.20;;;2.10;;
26050;SDS011;13825;53.496;10.020;2023-12-20T01:12:26;6.80;;;1.57;;
26050;SDS011;13825;53.496;10.020;2023-12-20T01:14:54;7.90;;;1.37;;
26050;SDS011;13825;53.496;10.020;2023-12-20T01:17:24;4.20;;;1.20;;
26050;SDS011;13825;53.496;10.020;2023-12-20T01:19:51;4.63;;;1.63;;
26050;SDS011;13825;53.496;10.020;2023-12-20T01:22:21;5.70;;;1.50;;
26050;SDS011;13825;53.496;10.020;2023-12-20T01:24:49;7.67;;;1.73;;
26050;SDS011;13825;53.496;10.020;2023-12-20T01:27:16;6.43;;;1.60;;
26050;SDS011;13825;53.496;10.020;2023-12-20T01:29:43;4.13;;;1.53;;
26050;SDS011;13825;53.496;10.020;2023-12-20T01:32:12;2.67;;;1.07;;
26050;SDS011;13825;53.496;10.020;2023-12-20T01:34:46;7.17;;;1.37;;
26050;SDS011;13825;53.496;10.020;2023-12-20T02:13:43;5.23;;;1.80;;
26050;SDS011;13825;53.496;10.020;2023-12-20T02:24:03;4.40;;;1.50;;
26050;SDS011;13825;53.496;10.020;2023-12-20T02:26:31;3.70;;;1.50;;
26050;SDS011;13825;53.496;10.020;2023-12-20T02:34:18;13.63;;;1.63;;
26050;SDS011;13825;53.496;10.020;2023-12-20T02:36:52;6.60;;;1.30;;
26050;SDS011;13825;53.496;10.020;2023-12-20T02:47:28;10.27;;;1.83;;
26050;SDS011;13825;53.496;10.020;2023-12-20T02:49:57;6.47;;;1.40;;
26050;SDS011;13825;53.496;10.020;2023-12-20T02:52:24;6.13;;;1.93;;
26050;SDS011;13825;53.496;10.020;2023-12-20T02:54:57;6.33;;;2.30;;
26050;SDS011;13825;53.496;10.020;2023-12-20T02:57:24;3.57;;;1.87;;
26050;SDS011;13825;53.496;10.020;2023-12-20T02:59:51;4.40;;;1.67;;
26050;SDS011;13825;53.496;10.020;2023-12-20T03:02:18;9.87;;;2.90;;
26050;SDS011;13825;53.496;10.020;2023-12-20T03:04:50;3.83;;;1.77;;
26050;SDS011;13825;53.496;10.020;2023-12-20T03:09:54;4.07;;;1.60;;
26050;SDS011;13825;53.496;10.020;2023-12-20T03:14:58;9.73;;;2.33;;
26050;SDS011;13825;53.496;10.020;2023-12-20T03:17:31;6.60;;;1.50;;
26050;SDS011;13825;53.496;10.020;2023-12-20T03:25:15;4.77;;;1.90;;
26050;SDS011;13825;53.496;10.020;2023-12-20T03:27:42;2.50;;;1.53;;
26050;SDS011;13825;53.496;10.020;2023-12-20T03:30:10;4.27;;;1.33;;
26050;SDS011;13825;53.496;10.020;2023-12-20T03:32:49;5.97;;;1.80;;
26050;SDS011;13825;53.496;10.020;2023-12-20T03:37:53;9.90;;;1.67;;
26050;SDS011;13825;53.496;10.020;2023-12-20T03:51:19;6.40;;;1.80;;
26050;SDS011;13825;53.496;10.020;2023-12-20T03:53:47;5.40;;;1.40;;
26050;SDS011;13825;53.496;10.020;2023-12-20T03:56:17;5.87;;;1.83;;
26050;SDS011;13825;53.496;10.020;2023-12-20T03:58:45;4.77;;;1.63;;
26050;SDS011;13825;53.496;10.020;2023-12-20T04:01:12;8.13;;;2.03;;
26050;SDS011;13825;53.496;10.020;2023-12-20T04:03:43;6.50;;;1.43;;
26050;SDS011;13825;53.496;10.020;2023-12-20T04:06:11;8.63;;;1.40;;
26050;SDS011;13825;53.496;10.020;2023-12-20T04:08:46;7.27;;;1.63;;
26050;SDS011;13825;53.496;10.020;2023-12-20T04:14:13;9.10;;;2.23;;
26050;SDS011;13825;53.496;10.020;2023-12-20T04:17:14;6.40;;;1.80;;
26050;SDS011;13825;53.496;10.020;2023-12-20T04:27:33;5.73;;;1.60;;
26050;SDS011;13825;53.496;10.020;2023-12-20T04:30:00;7.53;;;2.20;;
26050;SDS011;13825;53.496;10.020;2023-12-20T04:32:46;9.67;;;1.80;;
26050;SDS011;13825;53.496;10.020;2023-12-20T04:35:24;5.47;;;2.20;;
26050;SDS011;13825;53.496;10.020;2023-12-20T04:38:00;4.33;;;1.73;;
26050;SDS011;13825;53.496;10.020;2023-12-20T04:40:28;5.23;;;1.90;;
26050;SDS011;13825;53.496;10.020;2023-12-20T04:42:59;4.73;;;1.73;;
26050;SDS011;13825;53.496;10.020;2023-12-20T04:45:36;2.87;;;1.47;;
26050;SDS011;13825;53.496;10.020;2023-12-20T04:48:24;8.30;;;1.80;;
26050;SDS011;13825;53.496;10.020;2023-12-20T04:51:00;6.67;;;1.73;;
26050;SDS011;13825;53.496;10.020;2023-12-20T04:53:44;7.20;;;2.00;;
26050;SDS011;13825;53.496;10.020;2023-12-20T04:56:11;8.87;;;2.10;;
26050;SDS011;13825;53.496;10.020;2023-12-20T04:58:42;5.37;;;1.70;;
26050;SDS011;13825;53.496;10.020;2023-12-20T05:01:09;6.83;;;1.83;;
26050;SDS011;13825;53.496;10.020;2023-12-20T05:03:39;7.73;;;2.13;;
26050;SDS011;13825;53.496;10.020;2023-12-20T05:06:09;5.13;;;2.17;;
26050;SDS011;13825;53.496;10.020;2023-12-20T05:08:36;7.20;;;2.03;;
26050;SDS011;13825;53.496;10.020;2023-12-20T05:11:10;8.37;;;2.10;;
26050;SDS011;13825;53.496;10.020;2023-12-20T05:13:44;10.07;;;2.03;;
26050;SDS011;13825;53.496;10.020;2023-12-20T05:16:11;6.47;;;2.67;;
26050;SDS011;13825;53.496;10.020;2023-12-20T05:19:04;8.70;;;2.60;;
26050;SDS011;13825;53.496;10.020;2023-12-20T05:21:31;7.93;;;2.50;;
26050;SDS011;13825;53.496;10.020;2023-12-20T05:23:59;4.97;;;2.20;;
26050;SDS011;13825;53.496;10.020;2023-12-20T05:26:29;8.33;;;1.97;;
26050;SDS011;13825;53.496;10.020;2023-12-20T05:29:02;6.80;;;2.07;;
26050;SDS011;13825;53.496;10.020;2023-12-20T05:31:30;6.97;;;3.00;;
26050;SDS011;13825;53.496;10.020;2023-12-20T05:33:57;7.37;;;2.30;;
26050;SDS011;13825;53.496;10.020;2023-12-20T05:36:24;7.70;;;2.20;;
26050;SDS011;13825;53.496;10.020;2023-12-20T05:38:56;13.00;;;2.80;;
26050;SDS011;13825;53.496;10.020;2023-12-20T05:41:23;10.70;;;2.30;;
26050;SDS011;13825;53.496;10.020;2023-12-20T05:43:56;7.10;;;2.60;;
26050;SDS011;13825;53.496;10.020;2023-12-20T05:46:25;6.70;;;2.33;;
26050;SDS011;13825;53.496;10.020;2023-12-20T05:48:54;10.03;;;2.80;;
26050;SDS011;13825;53.496;10.020;2023-12-20T05:51:21;9.57;;;2.77;;
26050;SDS011;13825;53.496;10.020;2023-12-20T05:53:59;8.07;;;2.47;;
26050;SDS011;13825;53.496;10.020;2023-12-20T05:56:27;5.13;;;1.93;;
26050;SDS011;13825;53.496;10.020;2023-12-20T05:58:54;10.37;;;2.00;;
26050;SDS011;13825;53.496;10.020;2023-12-20T06:01:21;7.53;;;2.40;;
26050;SDS011;13825;53.496;10.020;2023-12-20T06:03:57;6.67;;;2.37;;
26050;SDS011;13825;53.496;10.020;2023-12-20T06:06:29;6.30;;;2.20;;
26050;SDS011;13825;53.496;10.020;2023-12-20T06:08:56;5.93;;;1.87;;
26050;SDS011;13825;53.496;10.020;2023-12-20T06:11:27;13.23;;;2.93;;
26050;SDS011;13825;53.496;10.020;2023-12-20T06:13:56;4.10;;;2.07;;
26050;SDS011;13825;53.496;10.020;2023-12-20T06:16:25;10.33;;;2.50;;
26050;SDS011;13825;53.496;10.020;2023-12-20T06:18:52;5.33;;;2.57;;
26050;SDS011;13825;53.496;10.020;2023-12-20T06:21:23;2.77;;;1.77;;
26050;SDS011;13825;53.496;10.020;2023-12-20T06:23:50;13.00;;;2.20;;
26050;SDS011;13825;53.496;10.020;2023-12-20T06:26:19;5.43;;;2.53;;
26050;SDS011;13825;53.496;10.020;2023-12-20T06:28:46;9.63;;;2.20;;
26050;SDS011;13825;53.496;10.020;2023-12-20T06:31:15;5.93;;;1.90;;
26050;SDS011;13825;53.496;10.020;2023-12-20T06:33:46;9.03;;;2.70;;
26050;SDS011;13825;53.496;10.020;2023-12-20T06:36:26;8.00;;;2.40;;
26050;SDS011;13825;53.496;10.020;2023-12-20T06:38:59;9.37;;;2.33;;
26050;SDS011;13825;53.496;10.020;2023-12-20T06:41:26;8.77;;;2.20;;
26050;SDS011;13825;53.496;10.020;2023-12-20T06:43:53;6.20;;;1.70;;
26050;SDS011;13825;53.496;10.020;2023-12-20T06:46:33;6.77;;;2.13;;
26050;SDS011;13825;53.496;10.020;2023-12-20T06:49:03;7.13;;;2.20;;
26050;SDS011;13825;53.496;10.020;2023-12-20T06:51:32;4.97;;;1.93;;
26050;SDS011;13825;53.496;10.020;2023-12-20T06:54:02;8.70;;;2.60;;
26050;SDS011;13825;53.496;10.020;2023-12-20T06:56:32;8.13;;;2.33;;
26050;SDS011;13825;53.496;10.020;2023-12-20T06:59:12;6.50;;;2.40;;
26050;SDS011;13825;53.496;10.020;2023-12-20T07:01:40;7.37;;;2.07;;
26050;SDS011;13825;53.496;10.020;2023-12-20T07:04:14;4.83;;;1.90;;
26050;SDS011;13825;53.496;10.020;2023-12-20T07:06:49;8.97;;;2.20;;
26050;SDS011;13825;53.496;10.020;2023-12-20T07:09:30;5.40;;;1.87;;
26050;SDS011;13825;53.496;10.020;2023-12-20T07:11:57;6.87;;;1.70;;
26050;SDS011;13825;53.496;10.020;2023-12-20T07:14:27;5.07;;;2.00;;
26050;SDS011;13825;53.496;10.020;2023-12-20T07:17:01;12.67;;;2.30;;
26050;SDS011;13825;53.496;10.020;2023-12-20T07:19:32;5.70;;;2.07;;
26050;SDS011;13825;53.496;10.020;2023-12-20T07:22:01;14.50;;;2.20;;
26050;SDS011;13825;53.496;10.020;2023-12-20T07:24:28;6.07;;;2.20;;
26050;SDS011;13825;53.496;10.020;2023-12-20T07:26:56;9.57;;;2.70;;
26050;SDS011;13825;53.496;10.020;2023-12-20T07:29:35;8.30;;;2.20;;
26050;SDS011;13825;53.496;10.020;2023-12-20T07:32:04;11.10;;;2.83;;
26050;SDS011;13825;53.496;10.020;2023-12-20T07:34:31;8.90;;;2.60;;
26050;SDS011;13825;53.496;10.020;2023-12-20T07:37:05;5.67;;;2.00;;
26050;SDS011;13825;53.496;10.020;2023-12-20T07:39:38;2.93;;;1.80;;
26050;SDS011;13825;53.496;10.020;2023-12-20T07:42:09;6.23;;;2.30;;
26050;SDS011;13825;53.496;10.020;2023-12-20T07:44:36;5.97;;;1.90;;
26050;SDS011;13825;53.496;10.020;2023-12-20T07:47:04;11.27;;;3.30;;
26050;SDS011;13825;53.496;10.020;2023-12-20T07:49:34;7.57;;;2.20;;
26050;SDS011;13825;53.496;10.020;2023-12-20T07:52:01;8.97;;;2.07;;
26050;SDS011;13825;53.496;10.020;2023-12-20T07:54:29;6.43;;;2.30;;
26050;SDS011;13825;53.496;10.020;2023-12-20T07:56:57;7.20;;;2.73;;
26050;SDS011;13825;53.496;10.020;2023-12-20T07:59:40;6.03;;;2.57;;
26050;SDS011;13825;53.496;10.020;2023-12-20T08:02:32;8.87;;;2.57;;
26050;SDS011;13825;53.496;10.020;2023-12-20T08:07:47;8.53;;;2.67;;
26050;SDS011;13825;53.496;10.020;2023-12-20T08:10:20;6.53;;;2.20;;
26050;SDS011;13825;53.496;10.020;2023-12-20T08:12:52;9.97;;;2.30;;
26050;SDS011;13825;53.496;10.020;2023-12-20T08:15:19;8.53;;;2.80;;
26050;SDS011;13825;53.496;10.020;2023-12-20T08:17:47;8.13;;;2.20;;
26050;SDS011;13825;53.496;10.020;2023-12-20T08:20:19;9.50;;;2.93;;
26050;SDS011;13825;53.496;10.020;2023-12-20T08:22:49;8.20;;;2.77;;
26050;SDS011;13825;53.496;10.020;2023-12-20T08:27:56;14.87;;;3.43;;
26050;SDS011;13825;53.496;10.020;2023-12-20T08:30:25;9.73;;;2.63;;
26050;SDS011;13825;53.496;10.020;2023-12-20T08:33:03;5.90;;;2.23;;
26050;SDS011;13825;53.496;10.020;2023-12-20T08:35:40;5.07;;;2.10;;
26050;SDS011;13825;53.496;10.020;2023-12-20T08:38:13;7.07;;;2.07;;
26050;SDS011;13825;53.496;10.020;2023-12-20T08:40:41;6.43;;;2.37;;
26050;SDS011;13825;53.496;10.020;2023-12-20T08:43:10;8.87;;;2.50;;
26050;SDS011;13825;53.496;10.020;2023-12-20T08:45:38;11.50;;;2.83;;
26050;SDS011;13825;53.496;10.020;2023-12-20T08:48:07;10.70;;;2.90;;
26050;SDS011;13825;53.496;10.020;2023-12-20T08:50:35;8.53;;;3.27;;
26050;SDS011;13825;53.496;10.020;2023-12-20T08:53:05;4.77;;;2.50;;
26050;SDS011;13825;53.496;10.020;2023-12-20T08:55:49;7.43;;;2.40;;
26050;SDS011;13825;53.496;10.020;2023-12-20T08:58:17;6.60;;;1.93;;
26050;SDS011;13825;53.496;10.020;2023-12-20T09:00:48;10.10;;;2.17;;
26050;SDS011;13825;53.496;10.020;2023-12-20T09:03:28;6.77;;;2.07;;
26050;SDS011;13825;53.496;10.020;2023-12-20T09:05:56;5.93;;;2.43;;
26050;SDS011;13825;53.496;10.020;2023-12-20T09:08:26;9.87;;;2.60;;
26050;SDS011;13825;53.496;10.020;2023-12-20T09:10:56;7.50;;;1.87;;
26050;SDS011;13825;53.496;10.020;2023-12-20T09:13:25;5.83;;;1.63;;
26050;SDS011;13825;53.496;10.020;2023-12-20T09:15:59;6.40;;;1.80;;
26050;SDS011;13825;53.496;10.020;2023-12-20T09:18:29;5.10;;;1.90;;
26050;SDS011;13825;53.496;10.020;2023-12-20T09:20:56;3.83;;;1.40;;
26050;SDS011;13825;53.496;10.020;2023-12-20T09:23:29;2.50;;;1.33;;
26050;SDS011;13825;53.496;10.020;2023-12-20T09:25:56;4.33;;;1.30;;
26050;SDS011;13825;53.496;10.020;2023-12-20T09:28:26;2.23;;;1.40;;
26050;SDS011;13825;53.496;10.020;2023-12-20T09:30:57;4.37;;;1.33;;
26050;SDS011;13825;53.496;10.020;2023-12-20T09:33:25;4.17;;;1.93;;
26050;SDS011;13825;53.496;10.020;2023-12-20T09:35:52;1.10;;;1.00;;
26050;SDS011;13825;53.496;10.020;2023-12-20T09:38:21;5.00;;;1.23;;
26050;SDS011;13825;53.496;10.020;2023-12-20T09:40:49;1.63;;;1.27;;
26050;SDS011;13825;53.496;10.020;2023-12-20T09:43:18;3.07;;;0.93;;
26050;SDS011;13825;53.496;10.020;2023-12-20T09:45:53;6.50;;;1.23;;
26050;SDS011;13825;53.496;10.020;2023-12-20T09:48:21;3.33;;;1.70;;
26050;SDS011;13825;53.496;10.020;2023-12-20T09:50:48;1.23;;;1.10;;
26050;SDS011;13825;53.496;10.020;2023-12-20T09:53:15;3.67;;;2.30;;
26050;SDS011;13825;53.496;10.020;2023-12-20T09:55:51;4.97;;;1.70;;
26050;SDS011;13825;53.496;10.020;2023-12-20T09:58:22;3.60;;;1.97;;
26050;SDS011;13825;53.496;10.020;2023-12-20T10:00:52;3.23;;;2.20;;
26050;SDS011;13825;53.496;10.020;2023-12-20T10:03:24;1.47;;;1.10;;
26050;SDS011;13825;53.496;10.020;2023-12-20T10:05:53;1.93;;;1.30;;
26050;SDS011;13825;53.496;10.020;2023-12-20T10:08:22;1.90;;;1.10;;
26050;SDS011;13825;53.496;10.020;2023-12-20T10:11:02;3.83;;;1.27;;
26050;SDS011;13825;53.496;10.020;2023-12-20T10:16:43;1.83;;;1.13;;
26050;SDS011;13825;53.496;10.020;2023-12-20T10:19:11;3.60;;;2.07;;
26050;SDS011;13825;53.496;10.020;2023-12-20T10:21:43;3.13;;;1.57;;
26050;SDS011;13825;53.496;10.020;2023-12-20T10:24:18;2.57;;;1.63;;
26050;SDS011;13825;53.496;10.020;2023-12-20T10:27:01;3.17;;;1.50;;
26050;SDS011;13825;53.496;10.020;2023-12-20T10:29:34;3.50;;;1.67;;
26050;SDS011;13825;53.496;10.020;2023-12-20T10:37:55;3.57;;;1.93;;
26050;SDS011;13825;53.496;10.020;2023-12-20T10:40:23;3.17;;;1.10;;
26050;SDS011;13825;53.496;10.020;2023-12-20T10:43:10;2.87;;;1.30;;
26050;SDS011;13825;53.496;10.020;2023-12-20T10:45:51;5.20;;;1.13;;
26050;SDS011;13825;53.496;10.020;2023-12-20T10:53:46;0.50;;;0.40;;
26050;SDS011;13825;53.496;10.020;2023-12-20T10:56:16;0.70;;;0.53;;
26050;SDS011;13825;53.496;10.020;2023-12-20T10:58:47;0.90;;;0.90;;
26050;SDS011;13825;53.496;10.020;2023-12-20T11:01:25;3.90;;;1.13;;
26050;SDS011;13825;53.496;10.020;2023-12-20T11:10:28;2.83;;;1.10;;
26050;SDS011;13825;53.496;10.020;2023-12-20T11:13:08;2.63;;;1.13;;
26050;SDS011;13825;53.496;10.020;2023-12-20T11:21:01;5.37;;;1.23;;
26050;SDS011;13825;53.496;10.020;2023-12-20T11:23:51;1.70;;;0.93;;
26050;SDS011;13825;53.496;10.020;2023-12-20T11:32:03;3.80;;;1.10;;
26050;SDS011;13825;53.496;10.020;2023-12-20T11:34:58;7.10;;;1.20;;
26050;SDS011;13825;53.496;10.020;2023-12-20T11:42:49;5.43;;;1.53;;
26050;SDS011;13825;53.496;10.020;2023-12-20T11:45:24;3.80;;;1.47;;
26050;SDS011;13825;53.496;10.020;2023-12-20T11:53:16;6.90;;;1.33;;
26050;SDS011;13825;53.496;10.020;2023-12-20T11:55:57;9.17;;;2.20;;
26050;SDS011;13825;53.496;10.020;2023-12-20T11:58:25;6.57;;;1.47;;
26050;SDS011;13825;53.496;10.020;2023-12-20T12:00:57;6.63;;;3.03;;
26050;SDS011;13825;53.496;10.020;2023-12-20T12:03:35;5.60;;;2.30;;
26050;SDS011;13825;53.496;10.020;2023-12-20T12:06:06;4.10;;;1.50;;
26050;SDS011;13825;53.496;10.020;2023-12-20T12:08:36;3.30;;;1.43;;
26050;SDS011;13825;53.496;10.020;2023-12-20T12:11:04;6.50;;;2.00;;
26050;SDS011;13825;53.496;10.020;2023-12-20T12:13:34;8.13;;;1.60;;
26050;SDS011;13825;53.496;10.020;2023-12-20T12:16:05;6.10;;;2.17;;
26050;SDS011;13825;53.496;10.020;2023-12-20T12:18:33;6.87;;;1.63;;
26050;SDS011;13825;53.496;10.020;2023-12-20T12:21:02;5.97;;;1.93;;
26050;SDS011;13825;53.496;10.020;2023-12-20T12:23:34;5.43;;;2.43;;
26050;SDS011;13825;53.496;10.020;2023-12-20T12:26:09;4.30;;;1.30;;
26050;SDS011;13825;53.496;10.020;2023-12-20T12:28:39;5.27;;;2.97;;
26050;SDS011;13825;53.496;10.020;2023-12-20T12:31:15;6.33;;;1.57;;
26050;SDS011;13825;53.496;10.020;2023-12-20T12:33:47;6.57;;;1.30;;
26050;SDS011;13825;53.496;10.020;2023-12-20T12:36:30;4.57;;;1.47;;
26050;SDS011;13825;53.496;10.020;2023-12-20T12:39:16;4.77;;;1.63;;
26050;SDS011;13825;53.496;10.020;2023-12-20T12:41:46;4.83;;;2.33;;
26050;SDS011;13825;53.496;10.020;2023-12-20T12:44:16;4.77;;;1.50;;
26050;SDS011;13825;53.496;10.020;2023-12-20T12:52:06;1.57;;;1.17;;
26050;SDS011;13825;53.496;10.020;2023-12-20T12:54:36;4.30;;;1.20;;
26050;SDS011;13825;53.496;10.020;2023-12-20T13:10:15;12.57;;;2.03;;
26050;SDS011;13825;53.496;10.020;2023-12-20T13:12:42;4.17;;;1.83;;
26050;SDS011;13825;53.496;10.020;2023-12-20T13:15:21;5.37;;;2.07;;
26050;SDS011;13825;53.496;10.020;2023-12-20T13:17:56;5.40;;;2.03;;
26050;SDS011;13825;53.496;10.020;2023-12-20T13:20:52;5.13;;;1.50;;
26050;SDS011;13825;53.496;10.020;2023-12-20T13:23:23;8.70;;;1.70;;
26050;SDS011;13825;53.496;10.020;2023-12-20T13:26:24;7.93;;;1.60;;
26050;SDS011;13825;53.496;10.020;2023-12-20T13:28:55;4.23;;;1.27;;
26050;SDS011;13825;53.496;10.020;2023-12-20T13:31:22;6.03;;;1.80;;
26050;SDS011;13825;53.496;10.020;2023-12-20T13:33:49;8.27;;;2.40;;
26050;SDS011;13825;53.496;10.020;2023-12-20T13:36:18;6.70;;;2.00;;
26050;SDS011;13825;53.496;10.020;2023-12-20T13:38:56;7.70;;;1.90;;
26050;SDS011;13825;53.496;10.020;2023-12-20T13:44:28;7.53;;;2.30;;
26050;SDS011;13825;53.496;10.020;2023-12-20T13:47:17;11.83;;;2.93;;
26050;SDS011;13825;53.496;10.020;2023-12-20T13:49:54;9.03;;;2.60;;
26050;SDS011;13825;53.496;10.020;2023-12-20T13:52:22;7.43;;;2.73;;
26050;SDS011;13825;53.496;10.020;2023-12-20T13:54:53;5.37;;;2.27;;
26050;SDS011;13825;53.496;10.020;2023-12-20T13:57:39;12.07;;;2.47;;
26050;SDS011;13825;53.496;10.020;2023-12-20T14:00:10;16.20;;;2.70;;
26050;SDS011;13825;53.496;10.020;2023-12-20T14:02:53;11.80;;;2.30;;
26050;SDS011;13825;53.496;10.020;2023-12-20T14:05:24;9.07;;;2.30;;
26050;SDS011;13825;53.496;10.020;2023-12-20T14:13:19;12.10;;;2.33;;
26050;SDS011;13825;53.496;10.020;2023-12-20T14:16:02;8.63;;;2.57;;
26050;SDS011;13825;53.496;10.020;2023-12-20T14:18:49;6.37;;;2.20;;
26050;SDS011;13825;53.496;10.020;2023-12-20T14:21:56;12.03;;;2.20;;
26050;SDS011;13825;53.496;10.020;2023-12-20T14:24:33;8.20;;;2.23;;
26050;SDS011;13825;53.496;10.020;2023-12-20T14:27:06;10.90;;;2.90;;
26050;SDS011;13825;53.496;10.020;2023-12-20T14:29:38;8.07;;;2.53;;
26050;SDS011;13825;53.496;10.020;2023-12-20T14:32:16;11.57;;;2.70;;
26050;SDS011;13825;53.496;10.020;2023-12-20T14:34:52;7.20;;;2.87;;
26050;SDS011;13825;53.496;10.020;2023-12-20T14:37:31;12.13;;;2.73;;
26050;SDS011;13825;53.496;10.020;2023-12-20T14:40:04;13.10;;;2.50;;
26050;SDS011;13825;53.496;10.020;2023-12-20T14:42:49;14.33;;;2.90;;
26050;SDS011;13825;53.496;10.020;2023-12-20T14:45:25;10.87;;;2.40;;
26050;SDS011;13825;53.496;10.020;2023-12-20T14:51:04;12.50;;;3.30;;
26050;SDS011;13825;53.496;10.020;2023-12-20T14:53:44;5.97;;;2.30;;
26050;SDS011;13825;53.496;10.020;2023-12-20T14:56:15;16.20;;;4.73;;
26050;SDS011;13825;53.496;10.020;2023-12-20T14:58:52;10.60;;;2.73;;
26050;SDS011;13825;53.496;10.020;2023-12-20T15:01:40;9.63;;;2.83;;
26050;SDS011;13825;53.496;10.020;2023-12-20T15:04:19;6.57;;;2.40;;
26050;SDS011;13825;53.496;10.020;2023-12-20T15:07:07;12.30;;;2.87;;
26050;SDS011;13825;53.496;10.020;2023-12-20T15:09:56;8.43;;;2.60;;
26050;SDS011;13825;53.496;10.020;2023-12-20T15:15:31;11.60;;;3.27;;
26050;SDS011;13825;53.496;10.020;2023-12-20T15:18:00;13.70;;;2.63;;
26050;SDS011;13825;53.496;10.020;2023-12-20T15:20:30;9.97;;;2.83;;
26050;SDS011;13825;53.496;10.020;2023-12-20T15:23:02;10.93;;;3.33;;
26050;SDS011;13825;53.496;10.020;2023-12-20T15:26:04;9.63;;;2.70;;
26050;SDS011;13825;53.496;10.020;2023-12-20T15:31:06;6.83;;;2.30;;
26050;SDS011;13825;53.496;10.020;2023-12-20T15:33:35;8.40;;;1.87;;
26050;SDS011;13825;53.496;10.020;2023-12-20T15:36:07;10.20;;;2.73;;
26050;SDS011;13825;53.496;10.020;2023-12-20T15:38:35;10.03;;;2.97;;
26050;SDS011;13825;53.496;10.020;2023-12-20T15:41:03;10.47;;;2.90;;
26050;SDS011;13825;53.496;10.020;2023-12-20T15:43:31;5.80;;;2.30;;
26050;SDS011;13825;53.496;10.020;2023-12-20T15:45:58;7.73;;;2.10;;
26050;SDS011;13825;53.496;10.020;2023-12-20T15:48:28;7.80;;;2.43;;
26050;SDS011;13825;53.496;10.020;2023-12-20T15:50:56;9.63;;;3.40;;
26050;SDS011;13825;53.496;10.020;2023-12-20T15:53:24;11.10;;;4.13;;
26050;SDS011;13825;53.496;10.020;2023-12-20T15:55:57;10.50;;;3.03;;
26050;SDS011;13825;53.496;10.020;2023-12-20T15:58:24;7.73;;;3.67;;
26050;SDS011;13825;53.496;10.020;2023-12-20T16:00:52;10.40;;;2.83;;
26050;SDS011;13825;53.496;10.020;2023-12-20T16:03:19;7.13;;;2.40;;
26050;SDS011;13825;53.496;10.020;2023-12-20T16:05:46;9.83;;;2.60;;
26050;SDS011;13825;53.496;10.020;2023-12-20T16:08:24;6.07;;;3.07;;
26050;SDS011;13825;53.496;10.020;2023-12-20T16:10:55;9.20;;;2.43;;
26050;SDS011;13825;53.496;10.020;2023-12-20T16:13:29;7.30;;;2.40;;
26050;SDS011;13825;53.496;10.020;2023-12-20T16:16:03;10.43;;;3.27;;
26050;SDS011;13825;53.496;10.020;2023-12-20T16:18:47;5.90;;;2.37;;
26050;SDS011;13825;53.496;10.020;2023-12-20T16:21:44;8.47;;;2.13;;
26050;SDS011;13825;53.496;10.020;2023-12-20T16:27:27;5.83;;;1.90;;
26050;SDS011;13825;53.496;10.020;2023-12-20T16:29:58;16.77;;;3.70;;
26050;SDS011;13825;53.496;10.020;2023-12-20T16:32:29;9.13;;;2.67;;
26050;SDS011;13825;53.496;10.020;2023-12-20T16:35:00;12.33;;;3.23;;
26050;SDS011;13825;53.496;10.020;2023-12-20T16:37:28;6.77;;;2.30;;
26050;SDS011;13825;53.496;10.020;2023-12-20T16:40:05;4.30;;;2.17;;
26050;SDS011;13825;53.496;10.020;2023-12-20T16:42:33;4.43;;;2.37;;
26050;SDS011;13825;53.496;10.020;2023-12-20T16:45:09;6.77;;;3.57;;
26050;SDS011;13825;53.496;10.020;2023-12-20T16:47:37;7.50;;;2.80;;
26050;SDS011;13825;53.496;10.020;2023-12-20T16:50:05;5.13;;;2.43;;
26050;SDS011;13825;53.496;10.020;2023-12-20T16:52:34;8.87;;;3.47;;
26050;SDS011;13825;53.496;10.020;2023-12-20T16:55:01;7.63;;;3.07;;
26050;SDS011;13825;53.496;10.020;2023-12-20T16:57:31;8.73;;;2.87;;
26050;SDS011;13825;53.496;10.020;2023-12-20T16:59:59;10.10;;;3.53;;
26050;SDS011;13825;53.496;10.020;2023-12-20T17:02:30;9.93;;;2.53;;
26050;SDS011;13825;53.496;10.020;2023-12-20T17:05:02;8.37;;;3.37;;
26050;SDS011;13825;53.496;10.020;2023-12-20T17:07:37;6.00;;;2.03;;
26050;SDS011;13825;53.496;10.020;2023-12-20T17:10:06;6.40;;;1.60;;
26050;SDS011;13825;53.496;10.020;2023-12-20T17:12:44;6.53;;;1.97;;
26050;SDS011;13825;53.496;10.020;2023-12-20T17:15:11;9.33;;;2.80;;
26050;SDS011;13825;53.496;10.020;2023-12-20T17:17:39;9.53;;;2.17;;
26050;SDS011;13825;53.496;10.020;2023-12-20T17:20:07;5.60;;;2.27;;
26050;SDS011;13825;53.496;10.020;2023-12-20T17:25:31;5.87;;;2.17;;
26050;SDS011;13825;53.496;10.020;2023-12-20T17:28:05;8.67;;;2.50;;
26050;SDS011;13825;53.496;10.020;2023-12-20T17:30:33;6.80;;;2.07;;
26050;SDS011;13825;53.496;10.020;2023-12-20T17:33:10;7.53;;;2.10;;
26050;SDS011;13825;53.496;10.020;2023-12-20T17:35:38;8.00;;;2.20;;
26050;SDS011;13825;53.496;10.020;2023-12-20T17:38:05;6.37;;;1.90;;
26050;SDS011;13825;53.496;10.020;2023-12-20T17:40:33;4.87;;;1.83;;
26050;SDS011;13825;53.496;10.020;2023-12-20T17:43:06;6.07;;;2.10;;
26050;SDS011;13825;53.496;10.020;2023-12-20T17:45:35;8.73;;;2.13;;
26050;SDS011;13825;53.496;10.020;2023-12-20T17:48:02;5.30;;;2.30;;
26050;SDS011;13825;53.496;10.020;2023-12-20T17:50:29;7.97;;;2.00;;
26050;SDS011;13825;53.496;10.020;2023-12-20T17:52:57;4.77;;;1.73;;
26050;SDS011;13825;53.496;10.020;2023-12-20T17:55:25;5.93;;;2.57;;
26050;SDS011;13825;53.496;10.020;2023-12-20T17:57:52;7.77;;;1.90;;
26050;SDS011;13825;53.496;10.020;2023-12-20T18:00:22;8.77;;;2.47;;
26050;SDS011;13825;53.496;10.020;2023-12-20T18:02:54;8.30;;;1.80;;
26050;SDS011;13825;53.496;10.020;2023-12-20T18:05:22;6.63;;;1.67;;